Terminal Aerodrome Forecast
Issued by NWS

Home | Current Version | Previous Version | Text Only | Print | Product List | Glossary On
Versions: 1 2 3 4 5 6 7 8 9 10 11 12 13 14 15 16 17 18 19 20 21
000
FTUS45 KCYS 220400 AAA
TAFLAR
TAF AMD
KLAR 220414Z 2204/2224 14007KT P6SM VCSH BKN070 OVC100
     FM221600 26013G21KT P6SM VCTS SCT050 BKN100CB=

USA.gov is the U.S. government's official web portal to all federal, state and local government web resources and services.